UBBN

Nakhchivan Airport

Nakhchivan, Azerbaijan
TAF UBBN 210504Z 2106/2206 16010KT 9999 FEW050 SCT100 TX31/2112Z TN19/2202Z TEMPO 2106/2112 23010KT TEMPO 2112/2122 12012KT
Issued Valid From Valid To
Aug-21 @ 05:04 UTC
(13 hours ago)
Aug-21 @ 06:00 UTC
(12 hours ago)
Aug-22 @ 06:00 UTC
(in 12 hours)
Aug-21 @ 06:00 to Aug-22 @ 06:00
TAF UBBN 210504Z 2106/2206 16010KT 9999 FEW050 SCT100 TX31/2112Z TN19/2202Z
Wind Visibility Clouds
160° at 10 knots 10,000+ meters
  • Few at 5,000' AGL
  • Scattered at 10,000' AGL
Expired Click to View Aug-21 @ 06:00 to Aug-21 @ 12:00
TEMPO 2106/2112 23010KT
Wind
230° at 10 knots
Temporary Aug-21 @ 12:00 to Aug-21 @ 22:00
TEMPO 2112/2122 12012KT
Wind
120° at 12 knots
TAF UBBN 210504Z 2106/2206 16010KT 9999 FEW050 SCT100 TX31/2112Z TN19/2202Z TEMPO 2106/2112 23010KT TEMPO 2112/2122 12012KT
Issued Aug-21 @ 05:04 UTC
(13 hours ago)
Valid From Aug-21 @ 06:00 UTC
(12 hours ago)
Valid To Aug-22 @ 06:00 UTC
(in 12 hours)
Aug-21 @ 06:00 - Aug-22 @ 06:00
Wind Visibility
160° at 10 knots 10,000+ meters
Clouds
  • Few at 5,000' AGL
  • Scattered at 10,000' AGL
Aug-21 @ 06:00 - Aug-21 @ 12:00
Wind
230° at 10 knots
Temporary Aug-21 @ 12:00 - Aug-21 @ 22:00
Wind
120° at 12 knots